LFKJ Airport Information

Runway Information
Runway 02 Length 7897 ft width 148 ft
Elevation 15 ft Threshold 0 ft Heading 25
Runway 20 Length 7897 ft Width 148 ft
Elevation 18 ft Threshold 744 ft Heading 205
Airport Frequencies
Type AFIS Name AFIS Frequency 119.825 MHZ
Type APP Name AJACCIO AP Frequency 121.05 MHZ
Type ATIS Name AJACCIO AT Frequency 126.925 MHZ
Type GND Name AJACCIO GN Frequency 121.7 MHZ
Type TWR Name AJACCIO TW Frequency 118.075 MHZ
Airport Navaids
Type NDB Name Ajaccio/Campo Dell Oro Frequency 341 KHZ
Airport Weather Information & NOTAM
ADDS - METARS form results

(0859 UTC 20 July 2018)
 
METAR text: LFKJ 200830Z AUTO 23006KT CAVOK 27/20 Q1015 NOSIG
Conditions at: LFKJ (AJACCIO/CAMPO OR, FR) observed 0830 UTC 20 July 2018
Temperature: 27.0°C (81°F)
Dewpoint: 20.0°C (68°F) [RH = 66%]
Pressure (altimeter): 29.97 inches Hg (1015.0 mb)
Winds: from the SW (230 degrees) at 7 MPH (6 knots; 3.1 m/s)
Visibility: 6 or more miles (10+ km)
Ceiling: ceiling and visibility are OK
Clouds: unknown
Weather: no significant weather observed at this time

METAR text: LFKJ 200800Z AUTO 24005KT 220V280 CAVOK 26/18 Q1015 NOSIG
Conditions at: LFKJ (AJACCIO/CAMPO OR, FR) observed 0800 UTC 20 July 2018
Temperature: 26.0°C (79°F)
Dewpoint: 18.0°C (64°F) [RH = 61%]
Pressure (altimeter): 29.97 inches Hg (1015.0 mb)
Winds: from the WSW (240 degrees) at 6 MPH (5 knots; 2.6 m/s)
Visibility: 6 or more miles (10+ km)
Ceiling: ceiling and visibility are OK
Clouds: unknown
Weather: no significant weather observed at this time